sensor_id;sensor_type;location;lat;lon;timestamp;P1;durP1;ratioP1;P2;durP2;ratioP2
8060;SDS011;4073;42.626;25.386;2023-04-06T00:00:04;8.13;;;6.77;;
8060;SDS011;4073;42.626;25.386;2023-04-06T00:02:33;7.47;;;6.77;;
8060;SDS011;4073;42.626;25.386;2023-04-06T00:04:59;8.60;;;7.73;;
8060;SDS011;4073;42.626;25.386;2023-04-06T00:07:24;7.57;;;6.53;;
8060;SDS011;4073;42.626;25.386;2023-04-06T00:09:50;7.73;;;6.93;;
8060;SDS011;4073;42.626;25.386;2023-04-06T00:12:15;8.23;;;7.37;;
8060;SDS011;4073;42.626;25.386;2023-04-06T00:14:41;8.20;;;7.40;;
8060;SDS011;4073;42.626;25.386;2023-04-06T00:17:06;7.43;;;6.73;;
8060;SDS011;4073;42.626;25.386;2023-04-06T00:19:32;7.20;;;6.50;;
8060;SDS011;4073;42.626;25.386;2023-04-06T00:21:57;7.73;;;7.03;;
8060;SDS011;4073;42.626;25.386;2023-04-06T00:24:23;7.83;;;7.07;;
8060;SDS011;4073;42.626;25.386;2023-04-06T00:26:48;7.33;;;6.63;;
8060;SDS011;4073;42.626;25.386;2023-04-06T00:29:13;8.17;;;7.37;;
8060;SDS011;4073;42.626;25.386;2023-04-06T00:31:40;7.43;;;6.60;;
8060;SDS011;4073;42.626;25.386;2023-04-06T00:34:05;9.13;;;8.13;;
8060;SDS011;4073;42.626;25.386;2023-04-06T00:36:31;9.47;;;7.90;;
8060;SDS011;4073;42.626;25.386;2023-04-06T00:38:57;9.10;;;8.13;;
8060;SDS011;4073;42.626;25.386;2023-04-06T00:41:22;7.43;;;6.67;;
8060;SDS011;4073;42.626;25.386;2023-04-06T00:43:48;8.57;;;7.77;;
8060;SDS011;4073;42.626;25.386;2023-04-06T00:46:13;10.20;;;7.37;;
8060;SDS011;4073;42.626;25.386;2023-04-06T00:48:39;8.03;;;7.27;;
8060;SDS011;4073;42.626;25.386;2023-04-06T00:51:05;8.03;;;7.23;;
8060;SDS011;4073;42.626;25.386;2023-04-06T00:53:31;8.27;;;7.40;;
8060;SDS011;4073;42.626;25.386;2023-04-06T00:55:56;8.63;;;7.47;;
8060;SDS011;4073;42.626;25.386;2023-04-06T00:58:22;8.60;;;7.67;;
8060;SDS011;4073;42.626;25.386;2023-04-06T01:00:48;8.30;;;7.50;;
8060;SDS011;4073;42.626;25.386;2023-04-06T01:03:14;8.63;;;7.83;;
8060;SDS011;4073;42.626;25.386;2023-04-06T01:05:39;8.67;;;7.77;;
8060;SDS011;4073;42.626;25.386;2023-04-06T01:08:06;8.43;;;7.37;;
8060;SDS011;4073;42.626;25.386;2023-04-06T01:10:32;8.80;;;7.90;;
8060;SDS011;4073;42.626;25.386;2023-04-06T01:12:58;8.23;;;7.40;;
8060;SDS011;4073;42.626;25.386;2023-04-06T01:15:23;8.97;;;7.97;;
8060;SDS011;4073;42.626;25.386;2023-04-06T01:17:49;8.93;;;8.03;;
8060;SDS011;4073;42.626;25.386;2023-04-06T01:20:14;8.27;;;7.47;;
8060;SDS011;4073;42.626;25.386;2023-04-06T01:22:40;8.47;;;7.60;;
8060;SDS011;4073;42.626;25.386;2023-04-06T01:25:05;8.93;;;7.80;;
8060;SDS011;4073;42.626;25.386;2023-04-06T01:27:32;9.20;;;8.30;;
8060;SDS011;4073;42.626;25.386;2023-04-06T01:29:57;8.57;;;7.77;;
8060;SDS011;4073;42.626;25.386;2023-04-06T01:32:23;9.70;;;7.60;;
8060;SDS011;4073;42.626;25.386;2023-04-06T01:34:49;8.57;;;7.67;;
8060;SDS011;4073;42.626;25.386;2023-04-06T01:37:14;9.60;;;8.07;;
8060;SDS011;4073;42.626;25.386;2023-04-06T01:39:40;8.93;;;8.03;;
8060;SDS011;4073;42.626;25.386;2023-04-06T01:42:07;9.57;;;8.33;;
8060;SDS011;4073;42.626;25.386;2023-04-06T01:44:32;10.03;;;8.83;;
8060;SDS011;4073;42.626;25.386;2023-04-06T01:46:58;8.87;;;7.97;;
8060;SDS011;4073;42.626;25.386;2023-04-06T01:49:23;11.80;;;8.03;;
8060;SDS011;4073;42.626;25.386;2023-04-06T01:51:48;8.33;;;7.53;;
8060;SDS011;4073;42.626;25.386;2023-04-06T01:54:14;9.30;;;8.20;;
8060;SDS011;4073;42.626;25.386;2023-04-06T01:56:40;8.50;;;7.60;;
8060;SDS011;4073;42.626;25.386;2023-04-06T01:59:06;9.03;;;7.67;;
8060;SDS011;4073;42.626;25.386;2023-04-06T02:01:31;10.57;;;7.97;;
8060;SDS011;4073;42.626;25.386;2023-04-06T02:03:56;19.10;;;11.23;;
8060;SDS011;4073;42.626;25.386;2023-04-06T02:06:22;10.80;;;9.30;;
8060;SDS011;4073;42.626;25.386;2023-04-06T02:08:47;11.23;;;10.00;;
8060;SDS011;4073;42.626;25.386;2023-04-06T02:11:13;11.97;;;9.53;;
8060;SDS011;4073;42.626;25.386;2023-04-06T02:13:38;10.70;;;8.50;;
8060;SDS011;4073;42.626;25.386;2023-04-06T02:16:04;10.13;;;8.37;;
8060;SDS011;4073;42.626;25.386;2023-04-06T02:18:30;10.07;;;9.07;;
8060;SDS011;4073;42.626;25.386;2023-04-06T02:20:56;11.43;;;8.60;;
8060;SDS011;4073;42.626;25.386;2023-04-06T02:23:21;8.70;;;7.80;;
8060;SDS011;4073;42.626;25.386;2023-04-06T02:25:47;14.30;;;12.00;;
8060;SDS011;4073;42.626;25.386;2023-04-06T02:28:12;16.63;;;12.10;;
8060;SDS011;4073;42.626;25.386;2023-04-06T02:30:38;9.80;;;8.13;;
8060;SDS011;4073;42.626;25.386;2023-04-06T02:33:03;9.93;;;7.50;;
8060;SDS011;4073;42.626;25.386;2023-04-06T02:35:29;9.23;;;8.10;;
8060;SDS011;4073;42.626;25.386;2023-04-06T02:37:56;11.73;;;10.20;;
8060;SDS011;4073;42.626;25.386;2023-04-06T02:40:21;9.80;;;8.80;;
8060;SDS011;4073;42.626;25.386;2023-04-06T02:42:47;11.27;;;9.77;;
8060;SDS011;4073;42.626;25.386;2023-04-06T02:45:12;11.10;;;9.50;;
8060;SDS011;4073;42.626;25.386;2023-04-06T02:47:38;10.67;;;7.90;;
8060;SDS011;4073;42.626;25.386;2023-04-06T02:50:04;9.80;;;7.87;;
8060;SDS011;4073;42.626;25.386;2023-04-06T02:52:30;10.07;;;7.67;;
8060;SDS011;4073;42.626;25.386;2023-04-06T02:54:55;10.10;;;7.83;;
8060;SDS011;4073;42.626;25.386;2023-04-06T02:57:20;10.13;;;8.97;;
8060;SDS011;4073;42.626;25.386;2023-04-06T02:59:46;10.17;;;8.73;;
8060;SDS011;4073;42.626;25.386;2023-04-06T03:02:11;10.67;;;8.90;;
8060;SDS011;4073;42.626;25.386;2023-04-06T03:04:37;12.33;;;9.37;;
8060;SDS011;4073;42.626;25.386;2023-04-06T03:07:02;10.67;;;9.10;;
8060;SDS011;4073;42.626;25.386;2023-04-06T03:09:28;9.40;;;8.27;;
8060;SDS011;4073;42.626;25.386;2023-04-06T03:11:53;9.37;;;7.97;;
8060;SDS011;4073;42.626;25.386;2023-04-06T03:14:19;9.00;;;8.10;;
8060;SDS011;4073;42.626;25.386;2023-04-06T03:16:47;10.67;;;8.80;;
8060;SDS011;4073;42.626;25.386;2023-04-06T03:19:13;10.73;;;9.63;;
8060;SDS011;4073;42.626;25.386;2023-04-06T03:21:38;10.90;;;9.80;;
8060;SDS011;4073;42.626;25.386;2023-04-06T03:24:04;11.33;;;9.90;;
8060;SDS011;4073;42.626;25.386;2023-04-06T03:26:30;10.47;;;9.47;;
8060;SDS011;4073;42.626;25.386;2023-04-06T03:28:55;10.67;;;9.37;;
8060;SDS011;4073;42.626;25.386;2023-04-06T03:31:21;10.97;;;9.87;;
8060;SDS011;4073;42.626;25.386;2023-04-06T03:33:46;10.63;;;9.53;;
8060;SDS011;4073;42.626;25.386;2023-04-06T03:36:12;12.20;;;10.90;;
8060;SDS011;4073;42.626;25.386;2023-04-06T03:38:37;11.83;;;10.63;;
8060;SDS011;4073;42.626;25.386;2023-04-06T03:41:03;13.30;;;11.20;;
8060;SDS011;4073;42.626;25.386;2023-04-06T03:43:28;13.17;;;11.77;;
8060;SDS011;4073;42.626;25.386;2023-04-06T03:45:54;12.40;;;10.50;;
8060;SDS011;4073;42.626;25.386;2023-04-06T03:48:20;13.30;;;10.60;;
8060;SDS011;4073;42.626;25.386;2023-04-06T03:50:45;12.93;;;10.97;;
8060;SDS011;4073;42.626;25.386;2023-04-06T03:53:10;17.50;;;13.60;;
8060;SDS011;4073;42.626;25.386;2023-04-06T03:55:36;55.17;;;30.90;;
8060;SDS011;4073;42.626;25.386;2023-04-06T03:58:01;18.87;;;14.80;;
8060;SDS011;4073;42.626;25.386;2023-04-06T04:00:27;12.20;;;10.67;;
8060;SDS011;4073;42.626;25.386;2023-04-06T04:02:53;11.40;;;9.77;;
8060;SDS011;4073;42.626;25.386;2023-04-06T04:05:18;10.50;;;9.30;;
8060;SDS011;4073;42.626;25.386;2023-04-06T04:07:43;10.57;;;9.47;;
8060;SDS011;4073;42.626;25.386;2023-04-06T04:10:09;14.73;;;13.23;;
8060;SDS011;4073;42.626;25.386;2023-04-06T04:12:35;9.70;;;8.27;;
8060;SDS011;4073;42.626;25.386;2023-04-06T04:15:01;10.17;;;8.90;;
8060;SDS011;4073;42.626;25.386;2023-04-06T04:17:28;13.77;;;11.77;;
8060;SDS011;4073;42.626;25.386;2023-04-06T04:19:53;17.50;;;14.07;;
8060;SDS011;4073;42.626;25.386;2023-04-06T04:22:18;42.23;;;27.90;;
8060;SDS011;4073;42.626;25.386;2023-04-06T04:24:44;29.00;;;22.90;;
8060;SDS011;4073;42.626;25.386;2023-04-06T04:27:09;15.93;;;13.97;;
8060;SDS011;4073;42.626;25.386;2023-04-06T04:29:35;14.30;;;12.90;;
8060;SDS011;4073;42.626;25.386;2023-04-06T04:32:00;13.63;;;9.40;;
8060;SDS011;4073;42.626;25.386;2023-04-06T04:34:26;11.23;;;9.13;;
8060;SDS011;4073;42.626;25.386;2023-04-06T04:36:52;11.00;;;9.00;;
8060;SDS011;4073;42.626;25.386;2023-04-06T04:39:18;11.87;;;9.63;;
8060;SDS011;4073;42.626;25.386;2023-04-06T04:41:43;13.63;;;10.30;;
8060;SDS011;4073;42.626;25.386;2023-04-06T04:44:09;13.43;;;10.70;;
8060;SDS011;4073;42.626;25.386;2023-04-06T04:46:34;13.47;;;11.67;;
8060;SDS011;4073;42.626;25.386;2023-04-06T04:49:00;13.07;;;10.67;;
8060;SDS011;4073;42.626;25.386;2023-04-06T04:51:25;15.23;;;11.77;;
8060;SDS011;4073;42.626;25.386;2023-04-06T04:53:51;13.57;;;10.20;;
8060;SDS011;4073;42.626;25.386;2023-04-06T04:56:16;13.97;;;11.77;;
8060;SDS011;4073;42.626;25.386;2023-04-06T04:58:42;17.07;;;12.80;;
8060;SDS011;4073;42.626;25.386;2023-04-06T05:01:07;12.63;;;11.33;;
8060;SDS011;4073;42.626;25.386;2023-04-06T05:03:33;12.63;;;10.50;;
8060;SDS011;4073;42.626;25.386;2023-04-06T05:05:59;11.20;;;10.10;;
8060;SDS011;4073;42.626;25.386;2023-04-06T05:08:24;14.33;;;11.83;;
8060;SDS011;4073;42.626;25.386;2023-04-06T05:10:50;13.70;;;11.73;;
8060;SDS011;4073;42.626;25.386;2023-04-06T05:13:15;18.77;;;13.87;;
8060;SDS011;4073;42.626;25.386;2023-04-06T05:15:41;15.70;;;12.97;;
8060;SDS011;4073;42.626;25.386;2023-04-06T05:18:07;18.20;;;14.63;;
8060;SDS011;4073;42.626;25.386;2023-04-06T05:20:33;18.60;;;15.03;;
8060;SDS011;4073;42.626;25.386;2023-04-06T05:22:59;18.67;;;14.50;;
8060;SDS011;4073;42.626;25.386;2023-04-06T05:25:25;22.00;;;13.27;;
8060;SDS011;4073;42.626;25.386;2023-04-06T05:27:50;19.20;;;14.30;;
8060;SDS011;4073;42.626;25.386;2023-04-06T05:30:16;17.83;;;14.57;;
8060;SDS011;4073;42.626;25.386;2023-04-06T05:32:41;36.47;;;23.73;;
8060;SDS011;4073;42.626;25.386;2023-04-06T05:35:08;17.07;;;13.97;;
8060;SDS011;4073;42.626;25.386;2023-04-06T05:37:34;15.50;;;13.33;;
8060;SDS011;4073;42.626;25.386;2023-04-06T05:39:59;11.53;;;10.37;;
8060;SDS011;4073;42.626;25.386;2023-04-06T05:42:25;15.67;;;11.93;;
8060;SDS011;4073;42.626;25.386;2023-04-06T05:44:52;10.37;;;9.30;;
8060;SDS011;4073;42.626;25.386;2023-04-06T05:47:17;9.83;;;8.70;;
8060;SDS011;4073;42.626;25.386;2023-04-06T05:49:43;11.73;;;9.60;;
8060;SDS011;4073;42.626;25.386;2023-04-06T05:52:08;9.33;;;8.27;;
8060;SDS011;4073;42.626;25.386;2023-04-06T05:54:35;10.90;;;9.07;;
8060;SDS011;4073;42.626;25.386;2023-04-06T05:57:02;11.50;;;10.30;;
8060;SDS011;4073;42.626;25.386;2023-04-06T05:59:29;12.33;;;10.00;;
8060;SDS011;4073;42.626;25.386;2023-04-06T06:01:56;13.83;;;11.67;;
8060;SDS011;4073;42.626;25.386;2023-04-06T06:04:21;11.30;;;10.13;;
8060;SDS011;4073;42.626;25.386;2023-04-06T06:06:46;12.37;;;11.07;;
8060;SDS011;4073;42.626;25.386;2023-04-06T06:09:12;11.40;;;10.23;;
8060;SDS011;4073;42.626;25.386;2023-04-06T06:11:37;11.97;;;10.77;;
8060;SDS011;4073;42.626;25.386;2023-04-06T06:14:03;10.53;;;9.20;;
8060;SDS011;4073;42.626;25.386;2023-04-06T06:16:29;13.60;;;10.17;;
8060;SDS011;4073;42.626;25.386;2023-04-06T06:18:54;10.20;;;8.30;;
8060;SDS011;4073;42.626;25.386;2023-04-06T06:21:20;14.23;;;12.13;;
8060;SDS011;4073;42.626;25.386;2023-04-06T06:23:45;12.37;;;11.00;;
8060;SDS011;4073;42.626;25.386;2023-04-06T06:26:13;11.37;;;10.20;;
8060;SDS011;4073;42.626;25.386;2023-04-06T06:28:38;9.93;;;8.93;;
8060;SDS011;4073;42.626;25.386;2023-04-06T06:31:04;10.47;;;9.37;;
8060;SDS011;4073;42.626;25.386;2023-04-06T06:33:29;10.90;;;9.80;;
8060;SDS011;4073;42.626;25.386;2023-04-06T06:35:55;10.10;;;9.10;;
8060;SDS011;4073;42.626;25.386;2023-04-06T06:38:20;9.10;;;8.30;;
8060;SDS011;4073;42.626;25.386;2023-04-06T06:40:46;9.20;;;8.30;;
8060;SDS011;4073;42.626;25.386;2023-04-06T06:43:12;9.07;;;8.17;;
8060;SDS011;4073;42.626;25.386;2023-04-06T06:45:37;8.97;;;8.07;;
8060;SDS011;4073;42.626;25.386;2023-04-06T06:48:03;9.47;;;8.57;;
8060;SDS011;4073;42.626;25.386;2023-04-06T06:50:28;8.47;;;7.67;;
8060;SDS011;4073;42.626;25.386;2023-04-06T06:52:54;8.23;;;7.43;;
8060;SDS011;4073;42.626;25.386;2023-04-06T06:55:19;9.33;;;8.10;;
8060;SDS011;4073;42.626;25.386;2023-04-06T06:57:45;13.07;;;10.30;;
8060;SDS011;4073;42.626;25.386;2023-04-06T07:00:14;8.23;;;7.40;;
8060;SDS011;4073;42.626;25.386;2023-04-06T07:02:58;8.97;;;8.07;;
8060;SDS011;4073;42.626;25.386;2023-04-06T07:05:24;8.30;;;7.50;;
8060;SDS011;4073;42.626;25.386;2023-04-06T07:07:49;8.03;;;7.23;;
8060;SDS011;4073;42.626;25.386;2023-04-06T07:10:15;7.30;;;6.23;;
8060;SDS011;4073;42.626;25.386;2023-04-06T07:12:40;7.50;;;6.27;;
8060;SDS011;4073;42.626;25.386;2023-04-06T07:15:06;6.93;;;6.23;;
8060;SDS011;4073;42.626;25.386;2023-04-06T07:17:32;6.13;;;5.47;;
8060;SDS011;4073;42.626;25.386;2023-04-06T07:19:57;4.77;;;4.27;;
8060;SDS011;4073;42.626;25.386;2023-04-06T07:22:23;5.60;;;5.07;;
8060;SDS011;4073;42.626;25.386;2023-04-06T07:24:48;7.13;;;6.43;;
8060;SDS011;4073;42.626;25.386;2023-04-06T07:27:14;6.50;;;5.87;;
8060;SDS011;4073;42.626;25.386;2023-04-06T07:29:41;6.57;;;5.97;;
8060;SDS011;4073;42.626;25.386;2023-04-06T07:32:07;7.23;;;6.53;;
8060;SDS011;4073;42.626;25.386;2023-04-06T07:34:33;4.10;;;3.80;;
8060;SDS011;4073;42.626;25.386;2023-04-06T07:36:58;3.93;;;3.63;;
8060;SDS011;4073;42.626;25.386;2023-04-06T07:39:25;4.30;;;3.93;;
8060;SDS011;4073;42.626;25.386;2023-04-06T07:41:52;5.17;;;4.67;;
8060;SDS011;4073;42.626;25.386;2023-04-06T07:44:17;4.97;;;4.47;;
8060;SDS011;4073;42.626;25.386;2023-04-06T07:46:43;6.53;;;5.93;;
8060;SDS011;4073;42.626;25.386;2023-04-06T07:49:08;5.40;;;4.90;;
8060;SDS011;4073;42.626;25.386;2023-04-06T07:51:37;6.30;;;5.50;;
8060;SDS011;4073;42.626;25.386;2023-04-06T07:54:03;7.30;;;5.73;;
8060;SDS011;4073;42.626;25.386;2023-04-06T07:56:29;6.27;;;5.67;;
8060;SDS011;4073;42.626;25.386;2023-04-06T07:58:54;6.30;;;5.70;;
8060;SDS011;4073;42.626;25.386;2023-04-06T08:01:22;7.80;;;5.30;;
8060;SDS011;4073;42.626;25.386;2023-04-06T08:03:47;9.77;;;6.77;;
8060;SDS011;4073;42.626;25.386;2023-04-06T08:06:14;6.23;;;5.63;;
8060;SDS011;4073;42.626;25.386;2023-04-06T08:08:41;6.27;;;5.40;;
8060;SDS011;4073;42.626;25.386;2023-04-06T08:11:07;6.47;;;5.90;;
8060;SDS011;4073;42.626;25.386;2023-04-06T08:13:33;6.47;;;5.80;;
8060;SDS011;4073;42.626;25.386;2023-04-06T08:15:58;8.27;;;5.57;;
8060;SDS011;4073;42.626;25.386;2023-04-06T08:18:25;6.80;;;6.03;;
8060;SDS011;4073;42.626;25.386;2023-04-06T08:20:50;6.90;;;5.70;;
8060;SDS011;4073;42.626;25.386;2023-04-06T08:23:16;5.80;;;4.97;;
8060;SDS011;4073;42.626;25.386;2023-04-06T08:25:41;5.07;;;4.60;;
8060;SDS011;4073;42.626;25.386;2023-04-06T08:28:08;5.80;;;4.80;;
8060;SDS011;4073;42.626;25.386;2023-04-06T08:30:34;4.67;;;4.17;;
8060;SDS011;4073;42.626;25.386;2023-04-06T08:33:00;5.30;;;4.80;;
8060;SDS011;4073;42.626;25.386;2023-04-06T08:35:26;6.60;;;5.43;;
8060;SDS011;4073;42.626;25.386;2023-04-06T08:40:37;6.13;;;5.03;;
8060;SDS011;4073;42.626;25.386;2023-04-06T08:43:03;4.93;;;4.53;;
8060;SDS011;4073;42.626;25.386;2023-04-06T08:45:36;5.13;;;4.30;;
8060;SDS011;4073;42.626;25.386;2023-04-06T08:48:03;4.57;;;4.17;;
8060;SDS011;4073;42.626;25.386;2023-04-06T08:50:32;5.00;;;4.53;;
8060;SDS011;4073;42.626;25.386;2023-04-06T08:52:58;4.63;;;4.23;;
8060;SDS011;4073;42.626;25.386;2023-04-06T08:55:24;5.30;;;4.80;;
8060;SDS011;4073;42.626;25.386;2023-04-06T08:57:50;5.77;;;4.40;;
8060;SDS011;4073;42.626;25.386;2023-04-06T09:00:19;4.50;;;4.10;;
8060;SDS011;4073;42.626;25.386;2023-04-06T09:02:46;5.37;;;4.87;;
8060;SDS011;4073;42.626;25.386;2023-04-06T09:05:14;4.40;;;4.00;;
8060;SDS011;4073;42.626;25.386;2023-04-06T09:07:40;4.47;;;4.07;;
8060;SDS011;4073;42.626;25.386;2023-04-06T09:10:06;5.13;;;4.63;;
8060;SDS011;4073;42.626;25.386;2023-04-06T09:12:32;4.53;;;4.13;;
8060;SDS011;4073;42.626;25.386;2023-04-06T09:14:59;4.47;;;4.17;;
8060;SDS011;4073;42.626;25.386;2023-04-06T09:17:26;5.00;;;4.57;;
8060;SDS011;4073;42.626;25.386;2023-04-06T09:19:53;4.77;;;4.37;;
8060;SDS011;4073;42.626;25.386;2023-04-06T09:22:19;4.93;;;4.50;;
8060;SDS011;4073;42.626;25.386;2023-04-06T09:24:49;4.63;;;4.23;;
8060;SDS011;4073;42.626;25.386;2023-04-06T09:27:16;4.77;;;4.37;;
8060;SDS011;4073;42.626;25.386;2023-04-06T09:29:43;5.83;;;5.27;;
8060;SDS011;4073;42.626;25.386;2023-04-06T09:32:10;4.40;;;4.00;;
8060;SDS011;4073;42.626;25.386;2023-04-06T09:34:39;4.17;;;3.77;;
8060;SDS011;4073;42.626;25.386;2023-04-06T09:37:14;4.50;;;4.10;;
8060;SDS011;4073;42.626;25.386;2023-04-06T09:39:41;5.03;;;4.63;;
8060;SDS011;4073;42.626;25.386;2023-04-06T09:42:06;6.00;;;4.95;;
8060;SDS011;4073;42.626;25.386;2023-04-06T09:44:32;4.43;;;3.60;;
8060;SDS011;4073;42.626;25.386;2023-04-06T09:46:57;4.13;;;3.73;;
8060;SDS011;4073;42.626;25.386;2023-04-06T09:49:23;3.93;;;3.63;;
8060;SDS011;4073;42.626;25.386;2023-04-06T09:52:04;5.07;;;4.57;;
8060;SDS011;4073;42.626;25.386;2023-04-06T09:54:32;4.93;;;4.53;;
8060;SDS011;4073;42.626;25.386;2023-04-06T10:01:56;5.07;;;4.67;;
8060;SDS011;4073;42.626;25.386;2023-04-06T10:04:43;4.70;;;4.30;;
8060;SDS011;4073;42.626;25.386;2023-04-06T10:07:18;5.03;;;4.53;;
8060;SDS011;4073;42.626;25.386;2023-04-06T10:09:45;4.23;;;3.77;;
8060;SDS011;4073;42.626;25.386;2023-04-06T10:12:11;4.90;;;4.40;;
8060;SDS011;4073;42.626;25.386;2023-04-06T10:14:38;4.77;;;4.27;;
8060;SDS011;4073;42.626;25.386;2023-04-06T10:17:04;4.40;;;4.10;;
8060;SDS011;4073;42.626;25.386;2023-04-06T10:19:36;5.30;;;4.80;;
8060;SDS011;4073;42.626;25.386;2023-04-06T10:22:28;4.70;;;4.30;;
8060;SDS011;4073;42.626;25.386;2023-04-06T10:25:01;5.53;;;4.40;;
8060;SDS011;4073;42.626;25.386;2023-04-06T10:27:28;5.13;;;4.70;;
8060;SDS011;4073;42.626;25.386;2023-04-06T10:29:54;5.27;;;4.77;;
8060;SDS011;4073;42.626;25.386;2023-04-06T10:32:33;4.70;;;4.00;;
8060;SDS011;4073;42.626;25.386;2023-04-06T10:35:09;5.63;;;4.60;;
8060;SDS011;4073;42.626;25.386;2023-04-06T10:40:30;4.83;;;4.43;;
8060;SDS011;4073;42.626;25.386;2023-04-06T10:43:06;4.40;;;4.00;;
8060;SDS011;4073;42.626;25.386;2023-04-06T10:45:59;4.77;;;4.37;;
8060;SDS011;4073;42.626;25.386;2023-04-06T10:48:36;4.33;;;3.93;;
8060;SDS011;4073;42.626;25.386;2023-04-06T10:51:06;4.30;;;3.90;;
8060;SDS011;4073;42.626;25.386;2023-04-06T10:53:34;3.53;;;3.23;;
8060;SDS011;4073;42.626;25.386;2023-04-06T10:56:00;5.23;;;4.73;;
8060;SDS011;4073;42.626;25.386;2023-04-06T10:58:27;6.87;;;5.43;;
8060;SDS011;4073;42.626;25.386;2023-04-06T11:00:53;5.17;;;4.70;;
8060;SDS011;4073;42.626;25.386;2023-04-06T11:03:20;6.83;;;4.57;;
8060;SDS011;4073;42.626;25.386;2023-04-06T11:05:46;5.10;;;4.70;;
8060;SDS011;4073;42.626;25.386;2023-04-06T11:08:29;4.63;;;4.20;;
8060;SDS011;4073;42.626;25.386;2023-04-06T11:11:08;4.90;;;4.43;;
8060;SDS011;4073;42.626;25.386;2023-04-06T11:21:38;6.13;;;4.70;;
8060;SDS011;4073;42.626;25.386;2023-04-06T11:24:05;4.77;;;4.37;;
8060;SDS011;4073;42.626;25.386;2023-04-06T11:26:39;6.17;;;5.07;;
8060;SDS011;4073;42.626;25.386;2023-04-06T11:29:09;5.00;;;4.50;;
8060;SDS011;4073;42.626;25.386;2023-04-06T11:31:57;5.67;;;4.00;;
8060;SDS011;4073;42.626;25.386;2023-04-06T11:34:28;6.50;;;5.60;;
8060;SDS011;4073;42.626;25.386;2023-04-06T11:36:55;4.27;;;3.87;;
8060;SDS011;4073;42.626;25.386;2023-04-06T11:39:27;4.23;;;3.83;;
8060;SDS011;4073;42.626;25.386;2023-04-06T11:41:54;4.17;;;3.87;;
8060;SDS011;4073;42.626;25.386;2023-04-06T11:44:28;5.20;;;4.10;;
8060;SDS011;4073;42.626;25.386;2023-04-06T11:46:57;4.37;;;4.00;;
8060;SDS011;4073;42.626;25.386;2023-04-06T11:49:27;4.10;;;3.70;;
8060;SDS011;4073;42.626;25.386;2023-04-06T11:51:54;13.33;;;5.17;;
8060;SDS011;4073;42.626;25.386;2023-04-06T11:54:32;4.30;;;3.90;;
8060;SDS011;4073;42.626;25.386;2023-04-06T11:57:05;4.47;;;3.50;;
8060;SDS011;4073;42.626;25.386;2023-04-06T11:59:32;4.07;;;3.67;;
8060;SDS011;4073;42.626;25.386;2023-04-06T12:01:59;4.37;;;3.97;;
8060;SDS011;4073;42.626;25.386;2023-04-06T12:04:25;7.13;;;6.07;;
8060;SDS011;4073;42.626;25.386;2023-04-06T12:06:51;10.00;;;8.60;;
8060;SDS011;4073;42.626;25.386;2023-04-06T12:09:17;5.20;;;4.07;;
8060;SDS011;4073;42.626;25.386;2023-04-06T12:11:43;4.67;;;3.40;;
8060;SDS011;4073;42.626;25.386;2023-04-06T12:14:08;4.20;;;3.80;;
8060;SDS011;4073;42.626;25.386;2023-04-06T12:16:34;4.47;;;4.07;;
8060;SDS011;4073;42.626;25.386;2023-04-06T12:19:00;4.93;;;3.90;;
8060;SDS011;4073;42.626;25.386;2023-04-06T12:21:29;4.73;;;4.33;;
8060;SDS011;4073;42.626;25.386;2023-04-06T12:23:56;4.53;;;4.13;;
8060;SDS011;4073;42.626;25.386;2023-04-06T12:26:25;3.87;;;3.57;;
8060;SDS011;4073;42.626;25.386;2023-04-06T12:28:51;4.63;;;4.17;;
8060;SDS011;4073;42.626;25.386;2023-04-06T12:31:17;3.07;;;2.77;;
8060;SDS011;4073;42.626;25.386;2023-04-06T12:33:48;2.93;;;2.70;;
8060;SDS011;4073;42.626;25.386;2023-04-06T12:36:17;3.43;;;3.13;;
8060;SDS011;4073;42.626;25.386;2023-04-06T12:38:47;3.13;;;2.93;;
8060;SDS011;4073;42.626;25.386;2023-04-06T12:41:14;4.23;;;3.77;;
8060;SDS011;4073;42.626;25.386;2023-04-06T12:43:43;3.40;;;3.10;;
8060;SDS011;4073;42.626;25.386;2023-04-06T12:46:09;3.90;;;3.53;;
8060;SDS011;4073;42.626;25.386;2023-04-06T12:48:35;3.90;;;3.50;;
8060;SDS011;4073;42.626;25.386;2023-04-06T12:51:02;3.90;;;3.07;;
8060;SDS011;4073;42.626;25.386;2023-04-06T12:53:29;3.80;;;3.40;;
8060;SDS011;4073;42.626;25.386;2023-04-06T12:55:55;4.70;;;3.43;;
8060;SDS011;4073;42.626;25.386;2023-04-06T12:58:21;4.00;;;3.13;;
8060;SDS011;4073;42.626;25.386;2023-04-06T13:00:48;4.27;;;3.80;;
8060;SDS011;4073;42.626;25.386;2023-04-06T13:03:15;8.17;;;7.20;;
8060;SDS011;4073;42.626;25.386;2023-04-06T13:05:45;5.20;;;4.20;;
8060;SDS011;4073;42.626;25.386;2023-04-06T13:08:11;6.00;;;4.47;;
8060;SDS011;4073;42.626;25.386;2023-04-06T13:10:37;6.90;;;4.90;;
8060;SDS011;4073;42.626;25.386;2023-04-06T13:13:03;6.87;;;5.83;;
8060;SDS011;4073;42.626;25.386;2023-04-06T13:15:29;6.53;;;5.33;;
8060;SDS011;4073;42.626;25.386;2023-04-06T13:17:54;5.73;;;5.10;;
8060;SDS011;4073;42.626;25.386;2023-04-06T13:20:20;5.00;;;4.40;;
8060;SDS011;4073;42.626;25.386;2023-04-06T13:22:46;7.37;;;6.23;;
8060;SDS011;4073;42.626;25.386;2023-04-06T13:25:11;6.90;;;5.23;;
8060;SDS011;4073;42.626;25.386;2023-04-06T13:27:36;5.40;;;4.90;;
8060;SDS011;4073;42.626;25.386;2023-04-06T13:30:03;6.63;;;3.80;;
8060;SDS011;4073;42.626;25.386;2023-04-06T13:32:29;5.17;;;4.63;;
8060;SDS011;4073;42.626;25.386;2023-04-06T13:34:55;4.50;;;4.10;;
8060;SDS011;4073;42.626;25.386;2023-04-06T13:37:21;6.40;;;3.93;;
8060;SDS011;4073;42.626;25.386;2023-04-06T13:39:47;6.77;;;4.50;;
8060;SDS011;4073;42.626;25.386;2023-04-06T13:42:12;4.70;;;4.07;;
8060;SDS011;4073;42.626;25.386;2023-04-06T13:44:38;4.27;;;3.87;;
8060;SDS011;4073;42.626;25.386;2023-04-06T13:47:03;10.17;;;5.33;;
8060;SDS011;4073;42.626;25.386;2023-04-06T13:49:29;7.17;;;4.57;;
8060;SDS011;4073;42.626;25.386;2023-04-06T13:51:55;6.37;;;5.20;;
8060;SDS011;4073;42.626;25.386;2023-04-06T13:54:20;5.30;;;4.77;;
8060;SDS011;4073;42.626;25.386;2023-04-06T13:56:46;8.57;;;4.90;;
8060;SDS011;4073;42.626;25.386;2023-04-06T13:59:11;4.50;;;4.10;;
8060;SDS011;4073;42.626;25.386;2023-04-06T14:01:37;5.67;;;4.23;;
8060;SDS011;4073;42.626;25.386;2023-04-06T14:04:02;6.00;;;4.03;;
8060;SDS011;4073;42.626;25.386;2023-04-06T14:06:28;5.33;;;4.20;;
8060;SDS011;4073;42.626;25.386;2023-04-06T14:08:53;5.43;;;4.60;;
8060;SDS011;4073;42.626;25.386;2023-04-06T14:11:19;4.70;;;4.20;;
8060;SDS011;4073;42.626;25.386;2023-04-06T14:13:45;7.67;;;4.73;;
8060;SDS011;4073;42.626;25.386;2023-04-06T14:16:11;7.60;;;6.77;;
8060;SDS011;4073;42.626;25.386;2023-04-06T14:18:37;12.37;;;9.47;;
8060;SDS011;4073;42.626;25.386;2023-04-06T14:21:03;7.37;;;6.10;;
8060;SDS011;4073;42.626;25.386;2023-04-06T14:23:28;6.03;;;5.43;;
8060;SDS011;4073;42.626;25.386;2023-04-06T14:26:07;4.43;;;4.07;;
8060;SDS011;4073;42.626;25.386;2023-04-06T14:28:33;4.77;;;4.37;;
8060;SDS011;4073;42.626;25.386;2023-04-06T14:31:00;5.33;;;4.83;;
8060;SDS011;4073;42.626;25.386;2023-04-06T14:33:27;4.97;;;4.43;;
8060;SDS011;4073;42.626;25.386;2023-04-06T14:35:53;4.90;;;4.40;;
8060;SDS011;4073;42.626;25.386;2023-04-06T14:38:18;5.07;;;4.63;;
8060;SDS011;4073;42.626;25.386;2023-04-06T14:40:44;6.73;;;4.43;;
8060;SDS011;4073;42.626;25.386;2023-04-06T14:43:09;4.40;;;4.00;;
8060;SDS011;4073;42.626;25.386;2023-04-06T14:45:35;6.00;;;4.17;;
8060;SDS011;4073;42.626;25.386;2023-04-06T14:48:01;6.60;;;6.00;;
8060;SDS011;4073;42.626;25.386;2023-04-06T14:50:27;5.67;;;5.10;;
8060;SDS011;4073;42.626;25.386;2023-04-06T14:52:53;5.93;;;4.77;;
8060;SDS011;4073;42.626;25.386;2023-04-06T14:55:18;8.67;;;7.77;;
8060;SDS011;4073;42.626;25.386;2023-04-06T14:57:44;6.63;;;6.03;;
8060;SDS011;4073;42.626;25.386;2023-04-06T15:00:10;12.30;;;7.77;;
8060;SDS011;4073;42.626;25.386;2023-04-06T15:02:36;11.97;;;10.67;;
8060;SDS011;4073;42.626;25.386;2023-04-06T15:05:01;8.17;;;7.30;;
8060;SDS011;4073;42.626;25.386;2023-04-06T15:07:28;5.70;;;5.20;;
8060;SDS011;4073;42.626;25.386;2023-04-06T15:09:53;6.27;;;5.70;;